sensor_id;sensor_type;location;lat;lon;timestamp;P1;durP1;ratioP1;P2;durP2;ratioP2
50757;SDS011;36732;47.980;11.652;2022-11-14T00:00:04;3.67;;;3.30;;
50757;SDS011;36732;47.980;11.652;2022-11-14T00:02:32;3.40;;;3.10;;
50757;SDS011;36732;47.980;11.652;2022-11-14T00:04:58;3.38;;;3.08;;
50757;SDS011;36732;47.980;11.652;2022-11-14T00:07:24;3.83;;;3.25;;
50757;SDS011;36732;47.980;11.652;2022-11-14T00:09:50;3.50;;;3.00;;
50757;SDS011;36732;47.980;11.652;2022-11-14T00:12:15;5.85;;;3.13;;
50757;SDS011;36732;47.980;11.652;2022-11-14T00:14:41;4.78;;;2.85;;
50757;SDS011;36732;47.980;11.652;2022-11-14T00:17:07;2.97;;;2.35;;
50757;SDS011;36732;47.980;11.652;2022-11-14T00:19:32;5.15;;;2.80;;
50757;SDS011;36732;47.980;11.652;2022-11-14T00:21:58;3.45;;;2.67;;
50757;SDS011;36732;47.980;11.652;2022-11-14T00:24:24;3.33;;;3.03;;
50757;SDS011;36732;47.980;11.652;2022-11-14T00:26:50;3.47;;;2.97;;
50757;SDS011;36732;47.980;11.652;2022-11-14T00:29:16;3.38;;;3.08;;
50757;SDS011;36732;47.980;11.652;2022-11-14T00:31:41;4.30;;;2.75;;
50757;SDS011;36732;47.980;11.652;2022-11-14T00:34:07;3.40;;;3.10;;
50757;SDS011;36732;47.980;11.652;2022-11-14T00:36:33;3.30;;;3.00;;
50757;SDS011;36732;47.980;11.652;2022-11-14T00:39:00;3.53;;;3.05;;
50757;SDS011;36732;47.980;11.652;2022-11-14T00:41:26;3.50;;;3.20;;
50757;SDS011;36732;47.980;11.652;2022-11-14T00:43:52;3.47;;;2.60;;
50757;SDS011;36732;47.980;11.652;2022-11-14T00:46:17;2.78;;;2.35;;
50757;SDS011;36732;47.980;11.652;2022-11-14T00:48:43;2.63;;;2.42;;
50757;SDS011;36732;47.980;11.652;2022-11-14T00:51:10;2.67;;;2.47;;
50757;SDS011;36732;47.980;11.652;2022-11-14T00:53:36;2.75;;;2.55;;
50757;SDS011;36732;47.980;11.652;2022-11-14T00:56:02;3.17;;;2.85;;
50757;SDS011;36732;47.980;11.652;2022-11-14T00:58:28;2.95;;;2.70;;
50757;SDS011;36732;47.980;11.652;2022-11-14T01:00:54;2.85;;;2.63;;
50757;SDS011;36732;47.980;11.652;2022-11-14T01:03:20;3.17;;;2.88;;
50757;SDS011;36732;47.980;11.652;2022-11-14T01:05:47;3.75;;;2.85;;
50757;SDS011;36732;47.980;11.652;2022-11-14T01:08:16;4.53;;;2.80;;
50757;SDS011;36732;47.980;11.652;2022-11-14T01:10:44;2.92;;;2.70;;
50757;SDS011;36732;47.980;11.652;2022-11-14T01:13:12;3.08;;;2.70;;
50757;SDS011;36732;47.980;11.652;2022-11-14T01:15:39;3.03;;;2.63;;
50757;SDS011;36732;47.980;11.652;2022-11-14T01:18:07;2.80;;;2.60;;
50757;SDS011;36732;47.980;11.652;2022-11-14T01:20:38;3.00;;;2.70;;
50757;SDS011;36732;47.980;11.652;2022-11-14T01:23:05;3.13;;;2.65;;
50757;SDS011;36732;47.980;11.652;2022-11-14T01:25:33;3.88;;;2.60;;
50757;SDS011;36732;47.980;11.652;2022-11-14T01:28:00;2.38;;;2.17;;
50757;SDS011;36732;47.980;11.652;2022-11-14T01:30:30;2.50;;;2.30;;
50757;SDS011;36732;47.980;11.652;2022-11-14T01:32:55;1.95;;;1.85;;
50757;SDS011;36732;47.980;11.652;2022-11-14T01:35:21;1.95;;;1.75;;
50757;SDS011;36732;47.980;11.652;2022-11-14T01:37:47;1.55;;;1.45;;
50757;SDS011;36732;47.980;11.652;2022-11-14T01:40:13;1.83;;;1.30;;
50757;SDS011;36732;47.980;11.652;2022-11-14T01:42:38;1.50;;;1.40;;
50757;SDS011;36732;47.980;11.652;2022-11-14T01:48:22;1.65;;;1.55;;
50757;SDS011;36732;47.980;11.652;2022-11-14T01:51:44;1.35;;;1.25;;
50757;SDS011;36732;47.980;11.652;2022-11-14T01:53:54;1.52;;;1.42;;
50757;SDS011;36732;47.980;11.652;2022-11-14T01:56:23;2.15;;;1.80;;
50757;SDS011;36732;47.980;11.652;2022-11-14T01:59:14;1.60;;;1.50;;
50757;SDS011;36732;47.980;11.652;2022-11-14T02:01:49;1.40;;;1.30;;
50757;SDS011;36732;47.980;11.652;2022-11-14T02:04:17;1.60;;;1.50;;
50757;SDS011;36732;47.980;11.652;2022-11-14T02:06:54;1.85;;;1.70;;
50757;SDS011;36732;47.980;11.652;2022-11-14T02:09:25;5.78;;;2.65;;
50757;SDS011;36732;47.980;11.652;2022-11-14T02:12:03;2.20;;;2.00;;
50757;SDS011;36732;47.980;11.652;2022-11-14T02:14:33;2.08;;;1.98;;
50757;SDS011;36732;47.980;11.652;2022-11-14T02:17:01;2.60;;;2.40;;
50757;SDS011;36732;47.980;11.652;2022-11-14T02:19:41;2.10;;;1.92;;
50757;SDS011;36732;47.980;11.652;2022-11-14T02:22:18;2.33;;;2.13;;
50757;SDS011;36732;47.980;11.652;2022-11-14T02:24:44;2.05;;;1.88;;
50757;SDS011;36732;47.980;11.652;2022-11-14T02:27:11;2.00;;;1.80;;
50757;SDS011;36732;47.980;11.652;2022-11-14T02:29:38;1.80;;;1.70;;
50757;SDS011;36732;47.980;11.652;2022-11-14T02:32:04;1.70;;;1.60;;
50757;SDS011;36732;47.980;11.652;2022-11-14T02:34:30;2.10;;;1.60;;
50757;SDS011;36732;47.980;11.652;2022-11-14T02:36:57;2.05;;;1.88;;
50757;SDS011;36732;47.980;11.652;2022-11-14T02:39:22;1.80;;;1.70;;
50757;SDS011;36732;47.980;11.652;2022-11-14T02:41:49;1.73;;;1.63;;
50757;SDS011;36732;47.980;11.652;2022-11-14T02:44:15;2.17;;;1.60;;
50757;SDS011;36732;47.980;11.652;2022-11-14T02:46:42;1.55;;;1.45;;
50757;SDS011;36732;47.980;11.652;2022-11-14T02:49:08;1.80;;;1.70;;
50757;SDS011;36732;47.980;11.652;2022-11-14T02:51:33;1.67;;;1.50;;
50757;SDS011;36732;47.980;11.652;2022-11-14T02:53:59;1.70;;;1.60;;
50757;SDS011;36732;47.980;11.652;2022-11-14T02:56:25;1.73;;;1.63;;
50757;SDS011;36732;47.980;11.652;2022-11-14T02:58:51;1.40;;;1.30;;
50757;SDS011;36732;47.980;11.652;2022-11-14T03:01:17;1.70;;;1.60;;
50757;SDS011;36732;47.980;11.652;2022-11-14T03:03:43;2.13;;;1.98;;
50757;SDS011;36732;47.980;11.652;2022-11-14T03:06:08;2.15;;;1.95;;
50757;SDS011;36732;47.980;11.652;2022-11-14T03:08:34;1.80;;;1.70;;
50757;SDS011;36732;47.980;11.652;2022-11-14T03:11:04;2.00;;;1.90;;
50757;SDS011;36732;47.980;11.652;2022-11-14T03:13:31;1.98;;;1.83;;
50757;SDS011;36732;47.980;11.652;2022-11-14T03:15:57;1.67;;;1.58;;
50757;SDS011;36732;47.980;11.652;2022-11-14T03:18:31;2.10;;;1.90;;
50757;SDS011;36732;47.980;11.652;2022-11-14T03:20:57;2.08;;;1.88;;
50757;SDS011;36732;47.980;11.652;2022-11-14T03:23:33;2.72;;;1.90;;
50757;SDS011;36732;47.980;11.652;2022-11-14T03:26:00;1.92;;;1.50;;
50757;SDS011;36732;47.980;11.652;2022-11-14T03:28:26;1.63;;;1.35;;
50757;SDS011;36732;47.980;11.652;2022-11-14T03:30:53;2.38;;;1.75;;
50757;SDS011;36732;47.980;11.652;2022-11-14T03:33:19;1.90;;;1.70;;
50757;SDS011;36732;47.980;11.652;2022-11-14T03:35:44;1.52;;;1.42;;
50757;SDS011;36732;47.980;11.652;2022-11-14T03:38:10;1.65;;;1.55;;
50757;SDS011;36732;47.980;11.652;2022-11-14T03:40:39;1.67;;;1.58;;
50757;SDS011;36732;47.980;11.652;2022-11-14T03:43:05;1.55;;;1.42;;
50757;SDS011;36732;47.980;11.652;2022-11-14T03:45:31;1.85;;;1.67;;
50757;SDS011;36732;47.980;11.652;2022-11-14T03:47:56;1.73;;;1.50;;
50757;SDS011;36732;47.980;11.652;2022-11-14T03:50:22;1.42;;;1.33;;
50757;SDS011;36732;47.980;11.652;2022-11-14T03:52:48;2.88;;;1.52;;
50757;SDS011;36732;47.980;11.652;2022-11-14T03:55:14;1.85;;;1.70;;
50757;SDS011;36732;47.980;11.652;2022-11-14T03:57:40;1.67;;;1.50;;
50757;SDS011;36732;47.980;11.652;2022-11-14T04:00:07;1.50;;;1.40;;
50757;SDS011;36732;47.980;11.652;2022-11-14T04:02:34;2.15;;;1.73;;
50757;SDS011;36732;47.980;11.652;2022-11-14T04:04:59;1.55;;;1.45;;
50757;SDS011;36732;47.980;11.652;2022-11-14T04:07:25;1.10;;;0.95;;
50757;SDS011;36732;47.980;11.652;2022-11-14T04:09:51;1.40;;;1.30;;
50757;SDS011;36732;47.980;11.652;2022-11-14T04:12:17;1.23;;;1.13;;
50757;SDS011;36732;47.980;11.652;2022-11-14T04:14:43;1.20;;;1.10;;
50757;SDS011;36732;47.980;11.652;2022-11-14T04:17:08;2.45;;;1.50;;
50757;SDS011;36732;47.980;11.652;2022-11-14T04:19:35;1.45;;;1.27;;
50757;SDS011;36732;47.980;11.652;2022-11-14T04:22:01;1.88;;;1.63;;
50757;SDS011;36732;47.980;11.652;2022-11-14T04:24:27;1.42;;;1.33;;
50757;SDS011;36732;47.980;11.652;2022-11-14T04:26:52;3.35;;;1.45;;
50757;SDS011;36732;47.980;11.652;2022-11-14T04:29:18;1.40;;;1.30;;
50757;SDS011;36732;47.980;11.652;2022-11-14T04:31:44;1.40;;;1.30;;
50757;SDS011;36732;47.980;11.652;2022-11-14T04:34:10;1.52;;;1.42;;
50757;SDS011;36732;47.980;11.652;2022-11-14T04:36:35;1.40;;;1.30;;
50757;SDS011;36732;47.980;11.652;2022-11-14T04:39:01;1.50;;;1.40;;
50757;SDS011;36732;47.980;11.652;2022-11-14T04:41:27;1.60;;;1.50;;
50757;SDS011;36732;47.980;11.652;2022-11-14T04:43:53;1.30;;;1.20;;
50757;SDS011;36732;47.980;11.652;2022-11-14T04:46:18;1.58;;;1.48;;
50757;SDS011;36732;47.980;11.652;2022-11-14T04:48:44;1.17;;;1.08;;
50757;SDS011;36732;47.980;11.652;2022-11-14T04:51:10;1.67;;;1.58;;
50757;SDS011;36732;47.980;11.652;2022-11-14T04:53:36;1.33;;;1.23;;
50757;SDS011;36732;47.980;11.652;2022-11-14T04:56:01;1.55;;;1.45;;
50757;SDS011;36732;47.980;11.652;2022-11-14T04:58:28;2.08;;;1.50;;
50757;SDS011;36732;47.980;11.652;2022-11-14T05:00:53;1.50;;;1.40;;
50757;SDS011;36732;47.980;11.652;2022-11-14T05:03:21;1.40;;;1.30;;
50757;SDS011;36732;47.980;11.652;2022-11-14T05:05:48;1.58;;;1.33;;
50757;SDS011;36732;47.980;11.652;2022-11-14T05:08:14;1.63;;;1.40;;
50757;SDS011;36732;47.980;11.652;2022-11-14T05:10:43;1.90;;;1.77;;
50757;SDS011;36732;47.980;11.652;2022-11-14T05:13:10;1.30;;;1.20;;
50757;SDS011;36732;47.980;11.652;2022-11-14T05:15:36;1.42;;;1.33;;
50757;SDS011;36732;47.980;11.652;2022-11-14T05:18:02;1.50;;;1.40;;
50757;SDS011;36732;47.980;11.652;2022-11-14T05:20:28;2.03;;;1.85;;
50757;SDS011;36732;47.980;11.652;2022-11-14T05:22:54;4.50;;;3.38;;
50757;SDS011;36732;47.980;11.652;2022-11-14T05:25:20;5.82;;;5.25;;
50757;SDS011;36732;47.980;11.652;2022-11-14T05:27:47;4.07;;;3.67;;
50757;SDS011;36732;47.980;11.652;2022-11-14T05:30:13;3.83;;;3.47;;
50757;SDS011;36732;47.980;11.652;2022-11-14T05:32:39;2.25;;;2.05;;
50757;SDS011;36732;47.980;11.652;2022-11-14T05:35:05;1.95;;;1.77;;
50757;SDS011;36732;47.980;11.652;2022-11-14T05:37:33;2.08;;;1.88;;
50757;SDS011;36732;47.980;11.652;2022-11-14T05:39:59;1.77;;;1.67;;
50757;SDS011;36732;47.980;11.652;2022-11-14T05:42:28;4.75;;;3.28;;
50757;SDS011;36732;47.980;11.652;2022-11-14T05:44:55;4.65;;;3.85;;
50757;SDS011;36732;47.980;11.652;2022-11-14T05:47:21;3.10;;;2.67;;
50757;SDS011;36732;47.980;11.652;2022-11-14T05:49:47;3.28;;;2.85;;
50757;SDS011;36732;47.980;11.652;2022-11-14T05:52:12;3.85;;;3.10;;
50757;SDS011;36732;47.980;11.652;2022-11-14T05:54:38;1.98;;;1.85;;
50757;SDS011;36732;47.980;11.652;2022-11-14T05:57:04;3.78;;;2.40;;
50757;SDS011;36732;47.980;11.652;2022-11-14T05:59:30;2.50;;;2.13;;
50757;SDS011;36732;47.980;11.652;2022-11-14T06:01:55;2.85;;;2.58;;
50757;SDS011;36732;47.980;11.652;2022-11-14T06:04:21;3.00;;;2.50;;
50757;SDS011;36732;47.980;11.652;2022-11-14T06:06:47;3.08;;;2.38;;
50757;SDS011;36732;47.980;11.652;2022-11-14T06:09:13;5.05;;;2.97;;
50757;SDS011;36732;47.980;11.652;2022-11-14T06:11:39;2.90;;;2.65;;
50757;SDS011;36732;47.980;11.652;2022-11-14T06:14:04;5.03;;;3.40;;
50757;SDS011;36732;47.980;11.652;2022-11-14T06:16:30;3.10;;;2.72;;
50757;SDS011;36732;47.980;11.652;2022-11-14T06:18:56;2.97;;;2.40;;
50757;SDS011;36732;47.980;11.652;2022-11-14T06:21:22;4.32;;;2.08;;
50757;SDS011;36732;47.980;11.652;2022-11-14T06:23:50;1.70;;;1.60;;
50757;SDS011;36732;47.980;11.652;2022-11-14T06:26:23;2.78;;;2.10;;
50757;SDS011;36732;47.980;11.652;2022-11-14T06:28:54;4.50;;;1.95;;
50757;SDS011;36732;47.980;11.652;2022-11-14T06:31:20;2.40;;;1.60;;
50757;SDS011;36732;47.980;11.652;2022-11-14T06:33:47;1.95;;;1.83;;
50757;SDS011;36732;47.980;11.652;2022-11-14T06:36:13;2.40;;;2.20;;
50757;SDS011;36732;47.980;11.652;2022-11-14T06:38:39;3.03;;;2.42;;
50757;SDS011;36732;47.980;11.652;2022-11-14T06:43:33;2.67;;;2.47;;
50757;SDS011;36732;47.980;11.652;2022-11-14T06:46:01;2.42;;;2.20;;
50757;SDS011;36732;47.980;11.652;2022-11-14T06:48:28;4.10;;;2.45;;
50757;SDS011;36732;47.980;11.652;2022-11-14T06:50:55;2.20;;;2.00;;
50757;SDS011;36732;47.980;11.652;2022-11-14T06:53:22;2.33;;;2.10;;
50757;SDS011;36732;47.980;11.652;2022-11-14T06:56:22;2.33;;;1.98;;
50757;SDS011;36732;47.980;11.652;2022-11-14T06:58:43;2.67;;;1.92;;
50757;SDS011;36732;47.980;11.652;2022-11-14T07:01:12;2.35;;;1.75;;
50757;SDS011;36732;47.980;11.652;2022-11-14T07:03:42;3.40;;;1.77;;
50757;SDS011;36732;47.980;11.652;2022-11-14T07:06:10;5.68;;;3.15;;
50757;SDS011;36732;47.980;11.652;2022-11-14T07:08:45;4.82;;;3.92;;
50757;SDS011;36732;47.980;11.652;2022-11-14T07:11:16;3.15;;;2.83;;
50757;SDS011;36732;47.980;11.652;2022-11-14T07:13:48;2.92;;;2.63;;
50757;SDS011;36732;47.980;11.652;2022-11-14T07:16:15;3.90;;;2.72;;
50757;SDS011;36732;47.980;11.652;2022-11-14T07:18:41;2.28;;;2.08;;
50757;SDS011;36732;47.980;11.652;2022-11-14T07:21:06;2.60;;;2.40;;
50757;SDS011;36732;47.980;11.652;2022-11-14T07:23:32;1.95;;;1.52;;
50757;SDS011;36732;47.980;11.652;2022-11-14T07:26:03;1.50;;;1.40;;
50757;SDS011;36732;47.980;11.652;2022-11-14T07:28:34;1.55;;;1.20;;
50757;SDS011;36732;47.980;11.652;2022-11-14T07:31:08;2.17;;;1.33;;
50757;SDS011;36732;47.980;11.652;2022-11-14T07:33:39;2.15;;;1.50;;
50757;SDS011;36732;47.980;11.652;2022-11-14T07:36:06;4.45;;;1.45;;
50757;SDS011;36732;47.980;11.652;2022-11-14T07:38:33;2.15;;;1.25;;
50757;SDS011;36732;47.980;11.652;2022-11-14T07:41:01;4.40;;;1.98;;
50757;SDS011;36732;47.980;11.652;2022-11-14T07:43:35;7.25;;;2.40;;
50757;SDS011;36732;47.980;11.652;2022-11-14T07:46:03;7.00;;;2.88;;
50757;SDS011;36732;47.980;11.652;2022-11-14T07:48:39;6.50;;;3.17;;
50757;SDS011;36732;47.980;11.652;2022-11-14T07:51:06;7.55;;;3.10;;
50757;SDS011;36732;47.980;11.652;2022-11-14T07:53:35;10.32;;;3.10;;
50757;SDS011;36732;47.980;11.652;2022-11-14T07:56:01;5.15;;;2.78;;
50757;SDS011;36732;47.980;11.652;2022-11-14T07:58:29;5.32;;;2.80;;
50757;SDS011;36732;47.980;11.652;2022-11-14T08:00:59;5.85;;;3.90;;
50757;SDS011;36732;47.980;11.652;2022-11-14T08:03:26;4.72;;;4.10;;
50757;SDS011;36732;47.980;11.652;2022-11-14T08:05:58;6.10;;;4.47;;
50757;SDS011;36732;47.980;11.652;2022-11-14T08:08:42;4.47;;;3.25;;
50757;SDS011;36732;47.980;11.652;2022-11-14T08:11:08;4.80;;;3.20;;
50757;SDS011;36732;47.980;11.652;2022-11-14T08:13:34;5.50;;;2.97;;
50757;SDS011;36732;47.980;11.652;2022-11-14T08:16:07;2.58;;;2.17;;
50757;SDS011;36732;47.980;11.652;2022-11-14T08:18:34;5.35;;;2.70;;
50757;SDS011;36732;47.980;11.652;2022-11-14T08:21:04;5.22;;;2.78;;
50757;SDS011;36732;47.980;11.652;2022-11-14T08:23:30;4.72;;;2.67;;
50757;SDS011;36732;47.980;11.652;2022-11-14T08:25:57;4.15;;;2.80;;
50757;SDS011;36732;47.980;11.652;2022-11-14T08:28:23;5.88;;;3.38;;
50757;SDS011;36732;47.980;11.652;2022-11-14T08:30:49;4.25;;;3.20;;
50757;SDS011;36732;47.980;11.652;2022-11-14T08:33:15;3.60;;;2.72;;
50757;SDS011;36732;47.980;11.652;2022-11-14T08:35:41;4.25;;;2.90;;
50757;SDS011;36732;47.980;11.652;2022-11-14T08:38:06;4.97;;;2.65;;
50757;SDS011;36732;47.980;11.652;2022-11-14T08:40:32;3.25;;;2.70;;
50757;SDS011;36732;47.980;11.652;2022-11-14T08:42:58;3.70;;;2.72;;
50757;SDS011;36732;47.980;11.652;2022-11-14T08:45:25;2.42;;;2.20;;
50757;SDS011;36732;47.980;11.652;2022-11-14T08:47:52;3.70;;;2.05;;
50757;SDS011;36732;47.980;11.652;2022-11-14T08:50:18;6.10;;;2.42;;
50757;SDS011;36732;47.980;11.652;2022-11-14T08:52:48;9.35;;;2.63;;
50757;SDS011;36732;47.980;11.652;2022-11-14T08:55:15;3.28;;;2.05;;
50757;SDS011;36732;47.980;11.652;2022-11-14T08:57:41;2.58;;;2.28;;
50757;SDS011;36732;47.980;11.652;2022-11-14T09:00:07;8.15;;;2.60;;
50757;SDS011;36732;47.980;11.652;2022-11-14T09:02:34;2.67;;;1.98;;
50757;SDS011;36732;47.980;11.652;2022-11-14T09:04:59;3.67;;;2.72;;
50757;SDS011;36732;47.980;11.652;2022-11-14T09:07:25;3.30;;;2.63;;
50757;SDS011;36732;47.980;11.652;2022-11-14T09:09:52;3.33;;;2.88;;
50757;SDS011;36732;47.980;11.652;2022-11-14T09:12:18;2.80;;;2.53;;
50757;SDS011;36732;47.980;11.652;2022-11-14T09:14:44;8.13;;;2.67;;
50757;SDS011;36732;47.980;11.652;2022-11-14T09:17:09;2.65;;;2.40;;
50757;SDS011;36732;47.980;11.652;2022-11-14T09:19:35;2.92;;;2.45;;
50757;SDS011;36732;47.980;11.652;2022-11-14T09:22:01;3.13;;;2.55;;
50757;SDS011;36732;47.980;11.652;2022-11-14T09:24:27;4.10;;;2.78;;
50757;SDS011;36732;47.980;11.652;2022-11-14T09:26:52;3.58;;;2.40;;
50757;SDS011;36732;47.980;11.652;2022-11-14T09:29:18;3.25;;;2.47;;
50757;SDS011;36732;47.980;11.652;2022-11-14T09:31:44;2.95;;;2.60;;
50757;SDS011;36732;47.980;11.652;2022-11-14T09:34:10;4.75;;;2.95;;
50757;SDS011;36732;47.980;11.652;2022-11-14T09:36:36;6.32;;;3.25;;
50757;SDS011;36732;47.980;11.652;2022-11-14T09:39:01;3.63;;;2.63;;
50757;SDS011;36732;47.980;11.652;2022-11-14T09:44:38;5.90;;;3.40;;
50757;SDS011;36732;47.980;11.652;2022-11-14T09:47:30;6.35;;;3.08;;
50757;SDS011;36732;47.980;11.652;2022-11-14T09:50:09;4.82;;;3.58;;
50757;SDS011;36732;47.980;11.652;2022-11-14T09:55:41;4.82;;;3.17;;
50757;SDS011;36732;47.980;11.652;2022-11-14T09:58:10;7.63;;;3.30;;
50757;SDS011;36732;47.980;11.652;2022-11-14T10:00:46;5.43;;;3.22;;
50757;SDS011;36732;47.980;11.652;2022-11-14T10:06:34;3.05;;;2.75;;
50757;SDS011;36732;47.980;11.652;2022-11-14T10:09:33;5.70;;;3.13;;
50757;SDS011;36732;47.980;11.652;2022-11-14T10:15:26;6.28;;;2.97;;
50757;SDS011;36732;47.980;11.652;2022-11-14T10:21:24;3.50;;;2.95;;
50757;SDS011;36732;47.980;11.652;2022-11-14T10:24:34;3.15;;;2.72;;
50757;SDS011;36732;47.980;11.652;2022-11-14T10:27:42;3.90;;;2.78;;
50757;SDS011;36732;47.980;11.652;2022-11-14T10:30:22;3.20;;;2.60;;
50757;SDS011;36732;47.980;11.652;2022-11-14T10:33:03;3.30;;;2.25;;
50757;SDS011;36732;47.980;11.652;2022-11-14T10:36:17;3.40;;;1.70;;
50757;SDS011;36732;47.980;11.652;2022-11-14T10:39:00;3.10;;;1.80;;
50757;SDS011;36732;47.980;11.652;2022-11-14T10:41:34;2.42;;;1.58;;
50757;SDS011;36732;47.980;11.652;2022-11-14T10:44:00;1.50;;;1.10;;
50757;SDS011;36732;47.980;11.652;2022-11-14T10:46:28;1.88;;;1.23;;
50757;SDS011;36732;47.980;11.652;2022-11-14T10:49:01;1.00;;;0.90;;
50757;SDS011;36732;47.980;11.652;2022-11-14T10:51:37;1.02;;;0.90;;
50757;SDS011;36732;47.980;11.652;2022-11-14T10:54:17;1.13;;;0.95;;
50757;SDS011;36732;47.980;11.652;2022-11-14T10:56:59;1.48;;;1.27;;
50757;SDS011;36732;47.980;11.652;2022-11-14T10:59:24;2.08;;;1.38;;
50757;SDS011;36732;47.980;11.652;2022-11-14T11:01:56;2.17;;;1.63;;
50757;SDS011;36732;47.980;11.652;2022-11-14T11:04:32;1.27;;;1.10;;
50757;SDS011;36732;47.980;11.652;2022-11-14T11:09:32;1.10;;;0.98;;
50757;SDS011;36732;47.980;11.652;2022-11-14T11:15:07;1.20;;;1.10;;
50757;SDS011;36732;47.980;11.652;2022-11-14T11:17:54;1.17;;;0.98;;
50757;SDS011;36732;47.980;11.652;2022-11-14T11:23:01;0.70;;;0.70;;
50757;SDS011;36732;47.980;11.652;2022-11-14T11:25:34;1.23;;;0.90;;
50757;SDS011;36732;47.980;11.652;2022-11-14T11:30:30;1.30;;;1.15;;
50757;SDS011;36732;47.980;11.652;2022-11-14T11:33:00;4.68;;;1.35;;
50757;SDS011;36732;47.980;11.652;2022-11-14T11:35:49;1.10;;;1.00;;
50757;SDS011;36732;47.980;11.652;2022-11-14T11:38:18;1.48;;;1.38;;
50757;SDS011;36732;47.980;11.652;2022-11-14T11:40:50;1.90;;;1.40;;
50757;SDS011;36732;47.980;11.652;2022-11-14T11:45:52;3.13;;;1.30;;
50757;SDS011;36732;47.980;11.652;2022-11-14T11:48:20;1.55;;;1.25;;
50757;SDS011;36732;47.980;11.652;2022-11-14T11:50:47;1.15;;;1.02;;
50757;SDS011;36732;47.980;11.652;2022-11-14T11:53:24;1.23;;;1.00;;
50757;SDS011;36732;47.980;11.652;2022-11-14T11:56:00;2.20;;;1.10;;
50757;SDS011;36732;47.980;11.652;2022-11-14T12:01:15;1.70;;;1.40;;
50757;SDS011;36732;47.980;11.652;2022-11-14T12:03:46;2.15;;;1.77;;
50757;SDS011;36732;47.980;11.652;2022-11-14T12:08:56;9.82;;;3.85;;
50757;SDS011;36732;47.980;11.652;2022-11-14T12:11:47;5.13;;;3.00;;
50757;SDS011;36732;47.980;11.652;2022-11-14T12:17:06;4.43;;;3.67;;
50757;SDS011;36732;47.980;11.652;2022-11-14T12:20:19;6.80;;;4.43;;
50757;SDS011;36732;47.980;11.652;2022-11-14T12:28:34;12.80;;;6.13;;
50757;SDS011;36732;47.980;11.652;2022-11-14T12:31:23;6.57;;;4.75;;
50757;SDS011;36732;47.980;11.652;2022-11-14T12:33:55;5.95;;;4.75;;
50757;SDS011;36732;47.980;11.652;2022-11-14T12:36:26;4.45;;;3.63;;
50757;SDS011;36732;47.980;11.652;2022-11-14T12:38:55;4.45;;;3.17;;
50757;SDS011;36732;47.980;11.652;2022-11-14T12:41:24;5.38;;;3.05;;
50757;SDS011;36732;47.980;11.652;2022-11-14T12:44:15;2.95;;;2.65;;
50757;SDS011;36732;47.980;11.652;2022-11-14T12:57:51;2.95;;;2.33;;
50757;SDS011;36732;47.980;11.652;2022-11-14T13:06:08;2.78;;;2.38;;
50757;SDS011;36732;47.980;11.652;2022-11-14T13:09:12;3.58;;;2.40;;
50757;SDS011;36732;47.980;11.652;2022-11-14T13:11:56;3.35;;;2.20;;
50757;SDS011;36732;47.980;11.652;2022-11-14T13:14:47;3.42;;;2.13;;
50757;SDS011;36732;47.980;11.652;2022-11-14T13:17:37;3.08;;;2.20;;
50757;SDS011;36732;47.980;11.652;2022-11-14T13:20:33;2.42;;;1.75;;
50757;SDS011;36732;47.980;11.652;2022-11-14T13:31:16;2.45;;;1.90;;
50757;SDS011;36732;47.980;11.652;2022-11-14T13:37:15;2.20;;;2.00;;
50757;SDS011;36732;47.980;11.652;2022-11-14T13:42:45;2.42;;;2.13;;
50757;SDS011;36732;47.980;11.652;2022-11-14T13:51:15;2.75;;;2.20;;
50757;SDS011;36732;47.980;11.652;2022-11-14T13:53:42;3.05;;;2.47;;
50757;SDS011;36732;47.980;11.652;2022-11-14T14:14:19;3.65;;;2.92;;
50757;SDS011;36732;47.980;11.652;2022-11-14T14:17:27;3.95;;;3.15;;
50757;SDS011;36732;47.980;11.652;2022-11-14T14:26:22;3.85;;;3.15;;
50757;SDS011;36732;47.980;11.652;2022-11-14T14:32:13;3.22;;;2.78;;
50757;SDS011;36732;47.980;11.652;2022-11-14T14:34:42;5.43;;;3.63;;
50757;SDS011;36732;47.980;11.652;2022-11-14T14:37:13;4.30;;;3.50;;
50757;SDS011;36732;47.980;11.652;2022-11-14T14:39:55;4.25;;;2.78;;
50757;SDS011;36732;47.980;11.652;2022-11-14T14:42:29;3.83;;;3.00;;
50757;SDS011;36732;47.980;11.652;2022-11-14T14:45:15;4.13;;;3.30;;
50757;SDS011;36732;47.980;11.652;2022-11-14T14:50:38;5.28;;;3.70;;
50757;SDS011;36732;47.980;11.652;2022-11-14T14:53:16;4.20;;;3.80;;
50757;SDS011;36732;47.980;11.652;2022-11-14T14:55:55;6.25;;;4.25;;
50757;SDS011;36732;47.980;11.652;2022-11-14T14:58:27;5.90;;;3.72;;
50757;SDS011;36732;47.980;11.652;2022-11-14T15:01:08;6.20;;;4.35;;
50757;SDS011;36732;47.980;11.652;2022-11-14T15:03:39;5.80;;;3.80;;
50757;SDS011;36732;47.980;11.652;2022-11-14T15:06:20;5.13;;;4.25;;
50757;SDS011;36732;47.980;11.652;2022-11-14T15:08:56;4.72;;;3.60;;
50757;SDS011;36732;47.980;11.652;2022-11-14T15:11:26;3.78;;;3.38;;
50757;SDS011;36732;47.980;11.652;2022-11-14T15:13:54;3.78;;;3.45;;
50757;SDS011;36732;47.980;11.652;2022-11-14T15:16:23;4.18;;;3.60;;
50757;SDS011;36732;47.980;11.652;2022-11-14T15:18:50;4.38;;;3.97;;
50757;SDS011;36732;47.980;11.652;2022-11-14T15:24:12;4.22;;;3.58;;
50757;SDS011;36732;47.980;11.652;2022-11-14T15:26:45;6.28;;;3.40;;
50757;SDS011;36732;47.980;11.652;2022-11-14T15:34:29;3.88;;;3.20;;
50757;SDS011;36732;47.980;11.652;2022-11-14T15:37:06;4.55;;;2.80;;
50757;SDS011;36732;47.980;11.652;2022-11-14T15:39:37;5.00;;;3.22;;
50757;SDS011;36732;47.980;11.652;2022-11-14T15:42:14;4.68;;;3.72;;
50757;SDS011;36732;47.980;11.652;2022-11-14T15:44:50;5.30;;;4.30;;
50757;SDS011;36732;47.980;11.652;2022-11-14T15:50:18;5.63;;;4.63;;
50757;SDS011;36732;47.980;11.652;2022-11-14T15:53:02;5.35;;;4.45;;
50757;SDS011;36732;47.980;11.652;2022-11-14T15:55:31;6.03;;;4.82;;
50757;SDS011;36732;47.980;11.652;2022-11-14T15:57:56;7.80;;;5.82;;
50757;SDS011;36732;47.980;11.652;2022-11-14T16:00:22;5.80;;;3.58;;
50757;SDS011;36732;47.980;11.652;2022-11-14T16:02:49;4.05;;;3.58;;
50757;SDS011;36732;47.980;11.652;2022-11-14T16:05:20;4.32;;;3.67;;
50757;SDS011;36732;47.980;11.652;2022-11-14T16:07:51;12.27;;;3.70;;
50757;SDS011;36732;47.980;11.652;2022-11-14T16:10:17;9.23;;;3.50;;
50757;SDS011;36732;47.980;11.652;2022-11-14T16:12:51;5.47;;;4.07;;
50757;SDS011;36732;47.980;11.652;2022-11-14T16:15:18;6.32;;;4.50;;
50757;SDS011;36732;47.980;11.652;2022-11-14T16:17:45;9.27;;;4.75;;
50757;SDS011;36732;47.980;11.652;2022-11-14T16:20:15;12.02;;;5.00;;
50757;SDS011;36732;47.980;11.652;2022-11-14T16:22:43;8.88;;;5.93;;
50757;SDS011;36732;47.980;11.652;2022-11-14T16:25:21;8.52;;;5.38;;
50757;SDS011;36732;47.980;11.652;2022-11-14T16:27:52;9.50;;;6.03;;
50757;SDS011;36732;47.980;11.652;2022-11-14T16:30:18;9.43;;;5.47;;
50757;SDS011;36732;47.980;11.652;2022-11-14T16:32:46;9.95;;;6.00;;
50757;SDS011;36732;47.980;11.652;2022-11-14T16:35:17;11.55;;;6.78;;
50757;SDS011;36732;47.980;11.652;2022-11-14T16:37:45;13.07;;;6.82;;
50757;SDS011;36732;47.980;11.652;2022-11-14T16:40:25;9.18;;;6.35;;
50757;SDS011;36732;47.980;11.652;2022-11-14T16:42:55;11.15;;;6.57;;
50757;SDS011;36732;47.980;11.652;2022-11-14T16:45:23;12.50;;;6.55;;
50757;SDS011;36732;47.980;11.652;2022-11-14T16:47:50;8.85;;;6.38;;
50757;SDS011;36732;47.980;11.652;2022-11-14T16:50:19;9.25;;;6.10;;
50757;SDS011;36732;47.980;11.652;2022-11-14T16:52:45;8.23;;;5.30;;
50757;SDS011;36732;47.980;11.652;2022-11-14T16:55:11;9.88;;;4.40;;
50757;SDS011;36732;47.980;11.652;2022-11-14T16:57:37;6.13;;;3.83;;